createdAt,value
2023-02-22T12:41:52.380Z,15.75
2023-02-22T12:42:52.304Z,15.97
2023-02-22T12:43:52.298Z,16.11
2023-02-22T12:44:52.277Z,16.17
2023-02-22T12:45:52.274Z,16.41
2023-02-22T12:46:52.256Z,16.60
2023-02-22T12:47:52.244Z,16.57
2023-02-22T12:48:52.226Z,16.76
2023-02-22T12:49:52.201Z,16.68
2023-02-22T12:50:52.169Z,16.50
2023-02-22T12:51:52.149Z,16.46
2023-02-22T12:52:52.178Z,16.45
2023-02-22T12:53:52.131Z,16.42
2023-02-22T12:54:52.096Z,16.20
2023-02-22T12:55:52.097Z,16.27
2023-02-22T12:56:52.075Z,16.39
2023-02-22T12:57:52.110Z,16.42
2023-02-22T12:58:52.063Z,16.46
2023-02-22T12:59:52.025Z,16.42
2023-02-22T14:02:09.194Z,16.05
2023-02-22T14:03:09.179Z,16.27
2023-02-22T14:04:09.129Z,16.39
2023-02-22T14:05:09.151Z,16.35
2023-02-22T14:06:09.099Z,16.57
2023-02-22T14:07:09.117Z,16.71
2023-02-22T14:08:09.065Z,16.81
2023-02-22T14:09:09.058Z,16.82
2023-02-22T14:10:09.055Z,16.79
2023-02-22T14:11:09.045Z,16.68
2023-02-22T14:12:09.072Z,16.70
2023-02-22T14:13:09.011Z,16.70
2023-02-22T14:14:16.840Z,16.83
2023-02-22T14:15:18.565Z,17.04
2023-02-22T14:16:09.050Z,17.30
2023-02-22T14:17:08.941Z,17.48
2023-02-22T14:18:08.921Z,17.63
2023-02-22T14:19:08.902Z,17.51
2023-02-22T14:20:08.896Z,17.59
2023-02-22T14:21:08.872Z,17.84
2023-02-22T14:22:08.845Z,17.95
2023-02-22T14:23:08.885Z,17.95
2023-02-22T14:24:08.833Z,17.86
2023-02-22T14:25:11.206Z,18.03
2023-02-22T14:26:08.804Z,18.02
2023-02-22T14:27:08.801Z,17.96
2023-02-22T14:28:08.760Z,18.37
2023-02-22T14:29:08.791Z,18.57
2023-02-22T14:30:08.799Z,18.37
2023-02-22T14:31:08.866Z,18.05
2023-02-22T14:32:08.825Z,17.89
2023-02-22T14:33:08.942Z,17.64
